Terminal Aerodrome Forecast
Issued by NWS

Home | Current Version | Previous Version | Text Only | Print | Product List | Glossary On
Versions: 1 2 3 4 5 6 7 8 9 10 11 12 13 14 15 16 17 18 19
000
FTUS44 KHGX 231720
TAFCXO
TAF
KCXO 231720Z 2318/2418 15010G15KT P6SM FEW030 SCT040
     FM240100 16008KT P6SM FEW040
     FM240500 VRB06KT P6SM FEW007
     FM241000 18006KT 6SM BR BKN007
     FM241400 19009KT P6SM SCT015=

USA.gov is the U.S. government's official web portal to all federal, state and local government web resources and services.